createdAt,value
2022-12-01T00:01:17.804Z,52.93
2022-12-01T00:03:45.410Z,53.91
2022-12-01T00:06:15.914Z,55.15
2022-12-01T00:09:06.875Z,55.08
2022-12-01T00:11:35.203Z,54.57
2022-12-01T00:14:02.899Z,54.42
2022-12-01T00:16:30.350Z,56.00
2022-12-01T00:18:58.027Z,56.32
2022-12-01T00:21:25.634Z,54.86
2022-12-01T00:23:54.499Z,55.42
2022-12-01T00:26:22.376Z,54.17
2022-12-01T00:28:53.299Z,54.93
2022-12-01T00:31:20.906Z,54.90
2022-12-01T00:33:50.080Z,54.70
2022-12-01T00:36:17.424Z,54.47
2022-12-01T00:38:44.789Z,55.80
2022-12-01T00:41:12.443Z,55.88
2022-12-01T00:43:40.436Z,55.22
2022-12-01T00:46:07.844Z,53.33
2022-12-01T00:48:35.518Z,56.19
2022-12-01T00:51:03.191Z,54.66
2022-12-01T00:53:30.539Z,54.61
2022-12-01T00:55:58.160Z,54.53
2022-12-01T00:58:25.581Z,54.19
2022-12-01T01:01:02.344Z,55.52
2022-12-01T01:03:30.242Z,54.59
2022-12-01T01:06:03.458Z,57.43
2022-12-01T01:08:31.063Z,56.52
2022-12-01T01:10:59.212Z,57.04
2022-12-01T01:13:26.549Z,55.91
2022-12-01T01:16:01.638Z,55.35
2022-12-01T01:18:29.088Z,55.50
2022-12-01T01:20:58.226Z,54.15
2022-12-01T01:23:25.573Z,56.27
2022-12-01T01:25:52.952Z,58.04
2022-12-01T01:28:20.555Z,57.96
2022-12-01T01:30:47.931Z,55.24
2022-12-01T01:33:15.308Z,56.90
2022-12-01T01:35:42.908Z,58.78
2022-12-01T01:38:10.750Z,57.68
2022-12-01T01:40:45.105Z,55.95
2022-12-01T01:43:17.049Z,58.08
2022-12-01T01:45:44.423Z,56.75
2022-12-01T01:48:11.993Z,57.89
2022-12-01T01:50:39.578Z,57.45
2022-12-01T01:53:11.673Z,57.79
2022-12-01T01:55:39.007Z,58.67
2022-12-01T01:58:07.805Z,57.59
2022-12-01T02:00:35.151Z,57.23
2022-12-01T02:03:02.783Z,57.65
2022-12-01T02:05:32.331Z,57.35
2022-12-01T02:08:01.377Z,58.60
2022-12-01T02:10:58.538Z,59.25
2022-12-01T02:13:38.084Z,58.95
2022-12-01T02:16:19.442Z,59.75
2022-12-01T02:18:46.597Z,58.23
2022-12-01T02:21:14.070Z,57.85
2022-12-01T02:23:59.879Z,59.61
2022-12-01T02:27:01.623Z,58.95
2022-12-01T02:29:31.859Z,60.16
2022-12-01T02:32:08.611Z,60.58
2022-12-01T02:34:40.310Z,59.87
2022-12-01T02:37:44.776Z,60.27
2022-12-01T02:40:20.814Z,60.14
2022-12-01T02:42:53.969Z,59.99
2022-12-01T02:45:52.190Z,60.70
2022-12-01T02:48:26.543Z,60.02
2022-12-01T02:50:53.943Z,59.25
2022-12-01T02:53:21.616Z,59.60
2022-12-01T02:55:53.026Z,59.00
2022-12-01T02:58:20.384Z,58.08
2022-12-01T03:01:05.851Z,58.88
2022-12-01T03:04:02.889Z,57.08
2022-12-01T03:06:40.420Z,58.86
2022-12-01T03:09:13.031Z,58.56
2022-12-01T03:12:06.579Z,59.24
2022-12-01T03:14:52.753Z,59.29
2022-12-01T03:17:22.752Z,59.61
2022-12-01T03:19:55.804Z,59.35
2022-12-01T03:22:26.084Z,57.84
2022-12-01T03:24:54.039Z,56.39
2022-12-01T03:27:24.340Z,58.10
2022-12-01T03:29:52.027Z,56.99
2022-12-01T03:32:32.314Z,58.72
2022-12-01T03:35:05.407Z,58.16
2022-12-01T03:37:38.796Z,58.31
2022-12-01T03:40:08.109Z,58.64
2022-12-01T03:42:38.495Z,58.67
2022-12-01T03:45:12.422Z,58.91
2022-12-01T03:47:40.447Z,59.21
2022-12-01T03:50:09.830Z,61.17
2022-12-01T03:52:52.369Z,60.37
2022-12-01T03:55:21.949Z,59.19
2022-12-01T03:58:08.382Z,59.25
2022-12-01T04:00:36.039Z,57.99
2022-12-01T04:03:04.168Z,59.18
2022-12-01T04:05:32.606Z,58.89
2022-12-01T04:08:00.225Z,59.71
2022-12-01T04:10:27.970Z,62.78
2022-12-01T04:12:59.324Z,59.73
2022-12-01T04:15:26.925Z,60.76
2022-12-01T04:17:54.675Z,61.23
2022-12-01T04:20:22.864Z,61.63
2022-12-01T04:22:50.220Z,60.11
2022-12-01T04:25:17.901Z,59.61
2022-12-01T04:27:45.244Z,58.72
2022-12-01T04:30:13.156Z,59.63
2022-12-01T04:32:41.554Z,60.12
2022-12-01T04:35:09.668Z,59.67
2022-12-01T04:37:37.099Z,59.56
2022-12-01T04:40:05.795Z,60.30
2022-12-01T04:42:33.167Z,59.54
2022-12-01T04:45:00.485Z,57.51
2022-12-01T04:47:28.095Z,59.34
2022-12-01T04:49:55.437Z,56.79
2022-12-01T04:52:22.752Z,58.81
2022-12-01T04:54:50.344Z,58.37
2022-12-01T04:57:17.659Z,56.52
2022-12-01T04:59:44.969Z,59.05
2022-12-01T05:02:12.663Z,58.84
2022-12-01T05:04:41.666Z,59.16
2022-12-01T05:07:09.069Z,58.46
2022-12-01T05:09:36.695Z,57.67
2022-12-01T05:12:04.269Z,57.79
2022-12-01T05:14:31.630Z,58.54
2022-12-01T05:17:00.495Z,57.77
2022-12-01T05:19:46.713Z,55.32
2022-12-01T05:22:14.584Z,57.69
2022-12-01T05:24:41.937Z,57.20
2022-12-01T05:27:09.278Z,57.29
2022-12-01T05:29:36.913Z,57.76
2022-12-01T05:32:04.935Z,56.79
2022-12-01T05:34:32.386Z,57.79
2022-12-01T05:36:59.985Z,58.27
2022-12-01T05:39:27.357Z,57.92
2022-12-01T05:41:54.703Z,58.20
2022-12-01T05:44:22.290Z,57.83
2022-12-01T05:46:49.717Z,59.82
2022-12-01T05:49:17.060Z,59.57
2022-12-01T05:51:44.669Z,58.85
2022-12-01T05:54:12.064Z,58.35
2022-12-01T05:56:39.376Z,58.83
2022-12-01T05:59:06.951Z,58.91
2022-12-01T06:01:34.334Z,59.01
2022-12-01T06:04:02.126Z,59.70
2022-12-01T06:06:29.586Z,58.55
2022-12-01T06:08:56.971Z,59.29
2022-12-01T06:11:24.577Z,58.86
2022-12-01T06:13:51.900Z,58.97
2022-12-01T06:16:19.262Z,59.18
2022-12-01T06:18:46.919Z,59.06
2022-12-01T06:21:14.572Z,56.78
2022-12-01T06:23:41.908Z,59.37
2022-12-01T06:26:09.523Z,60.10
2022-12-01T06:28:36.886Z,59.67
2022-12-01T06:31:04.265Z,59.72
2022-12-01T06:33:32.052Z,56.58
2022-12-01T06:35:59.983Z,58.65
2022-12-01T06:38:30.266Z,57.88
2022-12-01T06:41:00.436Z,59.83
2022-12-01T06:43:27.805Z,59.86
2022-12-01T06:46:00.871Z,60.37
2022-12-01T06:48:29.725Z,59.68
2022-12-01T06:51:00.349Z,59.44
2022-12-01T06:53:28.613Z,59.57
2022-12-01T06:56:03.089Z,60.25
2022-12-01T06:58:30.800Z,60.63
2022-12-01T07:00:59.313Z,60.49
2022-12-01T07:03:26.901Z,60.67
2022-12-01T07:06:00.747Z,60.71
2022-12-01T07:08:28.905Z,60.17
2022-12-01T07:11:00.706Z,60.42
2022-12-01T07:13:33.049Z,59.35
2022-12-01T07:16:02.998Z,57.79
2022-12-01T07:18:31.122Z,59.24
2022-12-01T07:21:07.198Z,59.66
2022-12-01T07:23:35.195Z,59.77
2022-12-01T07:26:03.062Z,60.26
2022-12-01T07:28:30.516Z,59.66
2022-12-01T07:31:08.719Z,59.94
2022-12-01T07:33:36.090Z,59.94
2022-12-01T07:36:05.397Z,59.91
2022-12-01T07:38:32.919Z,58.26
2022-12-01T07:41:10.125Z,58.11
2022-12-01T07:43:37.920Z,59.32
2022-12-01T07:46:15.753Z,59.11
2022-12-01T07:48:46.503Z,59.93
2022-12-01T07:51:16.599Z,57.85
2022-12-01T07:53:45.089Z,59.14
2022-12-01T07:56:12.756Z,59.36
2022-12-01T07:58:40.185Z,58.90
2022-12-01T08:01:09.040Z,59.03
2022-12-01T08:03:36.782Z,59.28
2022-12-01T08:06:04.648Z,59.11
2022-12-01T08:08:33.327Z,58.83
2022-12-01T08:11:06.124Z,58.70
2022-12-01T08:13:33.550Z,57.86
2022-12-01T08:16:04.724Z,58.09
2022-12-01T08:18:34.527Z,58.04
2022-12-01T08:21:02.175Z,58.12
2022-12-01T08:23:29.562Z,57.88
2022-12-01T08:26:03.251Z,57.61
2022-12-01T08:28:31.035Z,57.01
2022-12-01T08:30:58.541Z,56.45
2022-12-01T08:33:25.901Z,56.56
2022-12-01T08:35:53.534Z,56.48
2022-12-01T08:38:20.858Z,56.52
2022-12-01T08:40:48.239Z,56.28
2022-12-01T08:43:34.669Z,56.08
2022-12-01T08:46:03.272Z,55.86
2022-12-01T08:48:33.405Z,55.59
2022-12-01T08:51:06.551Z,55.45
2022-12-01T08:53:34.852Z,54.91
2022-12-01T08:56:07.250Z,54.83
2022-12-01T08:58:36.009Z,53.95
2022-12-01T09:01:04.603Z,52.60
2022-12-01T09:03:32.098Z,52.75
2022-12-01T09:06:16.437Z,52.46
2022-12-01T09:08:43.876Z,52.46
2022-12-01T09:11:16.130Z,52.52
2022-12-01T09:13:43.672Z,52.67
2022-12-01T09:16:13.509Z,50.98
2022-12-01T09:18:41.342Z,51.28
2022-12-01T09:21:16.831Z,51.50
2022-12-01T09:23:44.492Z,51.79
2022-12-01T09:26:13.925Z,51.50
2022-12-01T09:28:41.492Z,51.12
2022-12-01T09:31:10.757Z,54.31
2022-12-01T09:33:38.520Z,54.82
2022-12-01T09:36:07.090Z,53.10
2022-12-01T09:38:35.245Z,53.19
2022-12-01T09:41:05.657Z,51.81
2022-12-01T09:43:45.821Z,52.61
2022-12-01T09:46:22.834Z,52.31
2022-12-01T09:48:51.712Z,53.00
2022-12-01T09:51:21.136Z,53.34
2022-12-01T09:53:54.644Z,53.10
2022-12-01T09:56:24.634Z,52.90
2022-12-01T09:59:02.878Z,51.78
2022-12-01T10:01:37.858Z,51.33
2022-12-01T10:04:21.593Z,53.05
2022-12-01T10:06:52.946Z,51.91
2022-12-01T10:09:36.487Z,53.23
2022-12-01T10:12:15.081Z,54.74
2022-12-01T10:14:44.787Z,53.64
2022-12-01T10:17:59.879Z,55.16
2022-12-01T10:20:33.302Z,54.65
2022-12-01T10:23:08.339Z,54.83
2022-12-01T10:25:57.973Z,54.27
2022-12-01T10:28:43.687Z,54.30
2022-12-01T10:31:35.924Z,52.82
2022-12-01T10:34:13.962Z,54.04
2022-12-01T10:36:41.605Z,53.23
2022-12-01T10:39:23.919Z,54.41
2022-12-01T10:41:51.552Z,53.71
2022-12-01T10:44:18.976Z,51.93
2022-12-01T10:46:52.448Z,53.71
2022-12-01T10:49:20.168Z,53.18
2022-12-01T10:51:57.400Z,54.06
2022-12-01T10:54:33.517Z,52.49
2022-12-01T10:57:01.400Z,54.79
2022-12-01T10:59:36.439Z,51.56
2022-12-01T11:02:05.419Z,51.53
2022-12-01T11:04:45.133Z,52.38
2022-12-01T11:07:17.562Z,53.91
2022-12-01T11:09:45.809Z,51.19
2022-12-01T11:12:15.513Z,51.63
2022-12-01T11:14:43.817Z,50.50
2022-12-01T11:17:30.933Z,51.46
2022-12-01T11:19:59.012Z,52.86
2022-12-01T11:22:30.853Z,51.82
2022-12-01T11:25:03.265Z,52.82
2022-12-01T11:27:50.599Z,51.95
2022-12-01T11:30:25.959Z,52.00
2022-12-01T11:33:01.652Z,50.68
2022-12-01T11:35:33.538Z,50.63
2022-12-01T11:40:52.558Z,50.70
2022-12-01T11:43:29.895Z,50.23
2022-12-01T11:45:58.871Z,48.91
2022-12-01T11:48:28.691Z,49.28
2022-12-01T11:51:37.208Z,51.07
2022-12-01T11:54:20.208Z,49.74
2022-12-01T11:56:56.136Z,50.80
2022-12-01T11:59:36.224Z,49.13
2022-12-01T12:02:25.983Z,51.91
2022-12-01T12:05:20.116Z,52.68
2022-12-01T12:08:09.357Z,50.21
2022-12-01T12:10:57.088Z,52.45
2022-12-01T12:13:40.490Z,53.13
2022-12-01T12:16:28.886Z,54.88
2022-12-01T12:19:33.814Z,52.22
2022-12-01T12:22:14.159Z,51.17
2022-12-01T12:25:02.711Z,51.74
2022-12-01T12:27:48.603Z,51.36
2022-12-01T12:30:21.813Z,49.51
2022-12-01T12:33:09.865Z,49.52
2022-12-01T12:36:12.013Z,50.49
2022-12-01T12:39:17.227Z,49.51
2022-12-01T12:42:20.091Z,48.84
2022-12-01T12:44:52.875Z,52.05
2022-12-01T12:47:38.156Z,50.75
2022-12-01T12:50:46.821Z,50.63
2022-12-01T12:53:22.079Z,50.59
2022-12-01T12:55:51.322Z,49.76
2022-12-01T12:58:36.416Z,48.08
2022-12-01T13:01:26.381Z,50.25
2022-12-01T13:04:14.483Z,51.10
2022-12-01T13:06:45.884Z,50.69
2022-12-01T13:09:20.950Z,52.77
2022-12-01T13:12:16.026Z,51.87
2022-12-01T13:14:48.962Z,48.49
2022-12-01T13:17:22.507Z,50.33
2022-12-01T13:19:49.971Z,50.66
2022-12-01T13:22:18.931Z,50.44
2022-12-01T13:24:46.305Z,48.62
2022-12-01T13:27:17.649Z,48.62
2022-12-01T13:29:49.682Z,51.14
2022-12-01T13:32:40.412Z,50.72
2022-12-01T13:35:21.697Z,51.09
2022-12-01T13:37:49.052Z,51.45
2022-12-01T13:40:29.633Z,50.89
2022-12-01T13:43:05.489Z,51.67
2022-12-01T13:45:37.098Z,51.53
2022-12-01T13:48:05.214Z,50.29
2022-12-01T13:50:45.998Z,51.95
2022-12-01T13:53:19.362Z,50.84
2022-12-01T13:56:00.465Z,50.31
2022-12-01T13:58:34.216Z,50.71
2022-12-01T14:01:20.603Z,51.07
2022-12-01T14:04:22.367Z,50.44
2022-12-01T14:06:50.187Z,50.00
2022-12-01T14:09:32.089Z,50.52
2022-12-01T14:12:01.304Z,49.77
2022-12-01T14:14:34.638Z,49.91
2022-12-01T14:17:03.237Z,50.63
2022-12-01T14:19:46.086Z,50.06
2022-12-01T14:22:35.106Z,50.21
2022-12-01T14:25:06.048Z,50.86
2022-12-01T14:27:42.274Z,51.41
2022-12-01T14:30:41.073Z,51.40
2022-12-01T14:33:49.132Z,51.92
2022-12-01T14:36:49.189Z,52.20
2022-12-01T14:39:31.275Z,52.67
2022-12-01T14:42:11.420Z,53.00
2022-12-01T14:44:43.893Z,53.39
2022-12-01T14:47:11.375Z,53.74
2022-12-01T14:49:55.720Z,54.22
2022-12-01T14:52:26.295Z,54.12
2022-12-01T14:55:01.622Z,54.33
2022-12-01T14:57:32.272Z,54.54
2022-12-01T15:00:11.014Z,54.66
2022-12-01T15:03:09.266Z,54.56
2022-12-01T15:05:43.456Z,54.50
2022-12-01T15:08:45.704Z,54.62
2022-12-01T15:11:23.289Z,55.12
2022-12-01T15:13:54.810Z,55.21
2022-12-01T15:16:24.029Z,55.24
2022-12-01T15:18:52.028Z,55.49
2022-12-01T15:21:26.975Z,55.66
2022-12-01T15:24:01.335Z,55.59
2022-12-01T15:26:45.977Z,55.67
2022-12-01T15:29:20.570Z,55.50
2022-12-01T15:31:51.238Z,55.80
2022-12-01T15:34:25.075Z,56.39
2022-12-01T15:36:53.238Z,56.29
2022-12-01T15:39:33.950Z,56.12
2022-12-01T15:42:25.300Z,56.24
2022-12-01T15:45:19.621Z,56.43
2022-12-01T15:47:49.081Z,56.15
2022-12-01T15:50:31.434Z,56.34
2022-12-01T15:53:28.902Z,56.51
2022-12-01T15:55:59.184Z,56.45
2022-12-01T15:58:30.296Z,56.22
2022-12-01T16:01:04.765Z,56.56
2022-12-01T16:03:47.058Z,56.32
2022-12-01T16:06:14.427Z,56.67
2022-12-01T16:08:42.103Z,56.69
2022-12-01T16:11:16.821Z,56.80
2022-12-01T16:13:56.351Z,56.84
2022-12-01T16:16:36.844Z,56.69
2022-12-01T16:19:07.341Z,57.29
2022-12-01T16:21:53.826Z,57.38
2022-12-01T16:24:27.522Z,57.60
2022-12-01T16:27:00.230Z,57.60
2022-12-01T16:29:29.306Z,57.68
2022-12-01T16:32:19.225Z,57.64
2022-12-01T16:34:47.405Z,57.64
2022-12-01T16:37:14.973Z,58.17
2022-12-01T16:39:42.433Z,57.64
2022-12-01T16:42:12.467Z,57.95
2022-12-01T16:44:40.697Z,57.46
2022-12-01T16:47:13.900Z,58.15
2022-12-01T16:49:41.534Z,58.39
2022-12-01T16:52:42.576Z,57.68
2022-12-01T16:54:56.697Z,58.29
2022-12-01T16:57:24.117Z,58.61
2022-12-01T16:59:51.455Z,58.59
2022-12-01T17:02:19.093Z,58.52
2022-12-01T17:04:46.497Z,58.63
2022-12-01T17:07:13.849Z,58.63
2022-12-01T17:09:41.516Z,58.36
2022-12-01T17:12:08.867Z,58.45
2022-12-01T17:14:38.096Z,58.43
2022-12-01T17:17:05.870Z,58.24
2022-12-01T17:19:33.207Z,58.26
2022-12-01T17:22:00.552Z,58.09
2022-12-01T17:24:28.225Z,58.44
2022-12-01T17:26:55.576Z,58.44
2022-12-01T17:29:22.899Z,58.67
2022-12-01T17:31:50.519Z,58.81
2022-12-01T17:34:17.899Z,58.71
2022-12-01T17:36:45.384Z,58.64
2022-12-01T17:39:13.096Z,58.84
2022-12-01T17:41:42.141Z,58.84
2022-12-01T17:44:09.519Z,58.92
2022-12-01T17:46:38.522Z,58.84
2022-12-01T17:49:09.475Z,58.86
2022-12-01T17:51:37.160Z,59.10
2022-12-01T17:54:04.869Z,59.28
2022-12-01T17:56:32.284Z,59.30
2022-12-01T17:58:59.893Z,59.36
2022-12-01T18:01:30.369Z,59.23
2022-12-01T18:03:59.037Z,59.50
2022-12-01T18:06:26.915Z,59.50
2022-12-01T18:08:54.247Z,59.47
2022-12-01T18:11:22.895Z,59.62
2022-12-01T18:13:50.535Z,59.64
2022-12-01T18:16:25.042Z,59.81
2022-12-01T18:18:52.930Z,59.99
2022-12-01T18:21:21.183Z,59.79
2022-12-01T18:23:58.160Z,60.04
2022-12-01T18:26:26.077Z,60.16
2022-12-01T18:28:54.838Z,60.00
2022-12-01T18:31:22.356Z,60.16
2022-12-01T18:33:50.141Z,60.23
2022-12-01T18:36:19.860Z,60.28
2022-12-01T18:38:47.456Z,59.51
2022-12-01T18:41:15.557Z,60.20
2022-12-01T18:43:42.961Z,60.42
2022-12-01T18:46:13.913Z,60.24
2022-12-01T18:48:48.656Z,60.35
2022-12-01T18:51:16.256Z,60.38
2022-12-01T18:53:45.431Z,60.57
2022-12-01T18:56:15.054Z,60.54
2022-12-01T18:58:42.855Z,60.82
2022-12-01T19:01:21.526Z,60.87
2022-12-01T19:03:49.032Z,60.83
2022-12-01T19:06:17.103Z,60.76
2022-12-01T19:08:47.050Z,60.59
2022-12-01T19:11:16.340Z,60.64
2022-12-01T19:13:44.041Z,60.75
2022-12-01T19:16:18.423Z,60.81
2022-12-01T19:18:46.270Z,60.53
2022-12-01T19:21:15.233Z,61.08
2022-12-01T19:23:42.852Z,61.14
2022-12-01T19:26:11.956Z,60.41
2022-12-01T19:28:42.128Z,60.83
2022-12-01T19:31:11.325Z,61.46
2022-12-01T19:33:38.773Z,61.22
2022-12-01T19:36:07.651Z,61.42
2022-12-01T19:38:35.319Z,61.83
2022-12-01T19:41:02.759Z,61.54
2022-12-01T19:43:30.264Z,61.47
2022-12-01T19:45:57.986Z,61.27
2022-12-01T19:48:25.416Z,61.27
2022-12-01T19:50:52.737Z,60.89
2022-12-01T19:53:20.373Z,61.18
2022-12-01T19:55:47.714Z,61.46
2022-12-01T19:58:15.057Z,61.88
2022-12-01T20:00:42.654Z,62.05
2022-12-01T20:03:10.287Z,61.94
2022-12-01T20:05:37.657Z,61.47
2022-12-01T20:08:05.107Z,61.72
2022-12-01T20:10:33.597Z,61.63
2022-12-01T20:13:01.113Z,61.04
2022-12-01T20:15:28.571Z,61.61
2022-12-01T20:17:56.248Z,61.23
2022-12-01T20:20:23.632Z,61.17
2022-12-01T20:22:50.982Z,61.60
2022-12-01T20:25:18.820Z,61.53
2022-12-01T20:27:46.149Z,61.95
2022-12-01T20:30:14.093Z,62.36
2022-12-01T20:32:41.824Z,62.00
2022-12-01T20:35:11.938Z,62.44
2022-12-01T20:37:39.663Z,62.62
2022-12-01T20:40:07.724Z,61.86
2022-12-01T20:42:36.846Z,61.75
2022-12-01T20:45:04.698Z,62.09
2022-12-01T20:47:36.589Z,61.80
2022-12-01T20:50:05.380Z,61.94
2022-12-01T20:52:33.008Z,62.20
2022-12-01T20:55:00.423Z,62.38
2022-12-01T20:57:27.962Z,62.76
2022-12-01T20:59:55.557Z,62.78
2022-12-01T21:02:23.057Z,62.45
2022-12-01T21:04:52.245Z,62.80
2022-12-01T21:07:21.696Z,62.63
2022-12-01T21:09:49.290Z,62.79
2022-12-01T21:12:35.454Z,62.68
2022-12-01T21:15:08.435Z,62.79
2022-12-01T21:18:09.062Z,62.98
2022-12-01T21:20:40.363Z,63.79
2022-12-01T21:23:12.993Z,63.38
2022-12-01T21:25:41.516Z,63.75
2022-12-01T21:28:19.060Z,63.35
2022-12-01T21:30:47.623Z,63.14
2022-12-01T21:33:23.308Z,63.04
2022-12-01T21:35:51.965Z,63.34
2022-12-01T21:38:22.075Z,63.28
2022-12-01T21:40:49.931Z,63.23
2022-12-01T21:43:22.645Z,63.32
2022-12-01T21:45:58.450Z,63.27
2022-12-01T21:48:27.690Z,63.34
2022-12-01T21:51:01.915Z,63.24
2022-12-01T21:53:37.118Z,63.61
2022-12-01T21:56:04.588Z,63.60
2022-12-01T21:58:36.948Z,63.63
2022-12-01T22:01:14.851Z,63.32
2022-12-01T22:03:45.881Z,63.91
2022-12-01T22:06:29.657Z,63.34
2022-12-01T22:09:01.390Z,63.41
2022-12-01T22:11:29.749Z,65.08
2022-12-01T22:14:11.261Z,64.18
2022-12-01T22:16:51.401Z,63.75
2022-12-01T22:19:35.527Z,63.19
2022-12-01T22:22:09.229Z,63.45
2022-12-01T22:24:43.023Z,63.22
2022-12-01T22:27:31.801Z,62.74
2022-12-01T22:30:03.291Z,62.79
2022-12-01T22:32:35.488Z,63.18
2022-12-01T22:35:28.171Z,62.82
2022-12-01T22:38:08.643Z,63.34
2022-12-01T22:40:43.375Z,63.20
2022-12-01T22:43:16.803Z,63.17
2022-12-01T22:46:00.088Z,62.79
2022-12-01T22:48:27.812Z,62.93
2022-12-01T22:50:55.154Z,61.93
2022-12-01T22:53:29.104Z,62.33
2022-12-01T22:55:57.640Z,62.77
2022-12-01T22:58:28.591Z,62.63
2022-12-01T23:00:57.979Z,62.34
2022-12-01T23:03:26.159Z,62.67
2022-12-01T23:05:55.833Z,62.58
2022-12-01T23:08:23.563Z,62.71
2022-12-01T23:10:51.664Z,61.92
2022-12-01T23:13:21.653Z,61.94
2022-12-01T23:15:50.828Z,61.73
2022-12-01T23:18:26.959Z,62.03
2022-12-01T23:20:58.152Z,61.26
2022-12-01T23:23:27.050Z,61.82
2022-12-01T23:25:54.523Z,61.93
2022-12-01T23:28:21.999Z,61.02
2022-12-01T23:30:51.598Z,61.54
2022-12-01T23:33:26.184Z,61.67
2022-12-01T23:36:08.862Z,61.14
2022-12-01T23:38:41.096Z,60.84
2022-12-01T23:41:39.181Z,61.11
2022-12-01T23:44:23.885Z,61.10
2022-12-01T23:46:53.687Z,60.60
2022-12-01T23:49:24.366Z,61.13
2022-12-01T23:51:53.183Z,60.83
2022-12-01T23:54:34.144Z,60.34
2022-12-01T23:57:03.182Z,60.96
2022-12-01T23:59:30.554Z,61.42
